Ergebnisliste vom: 02.05.2010 - Airport-Duathlon Berlin2010 - Jedermann-Mšnner

weitere Ergebnisse >>

Plg Plm Plw StNr. Name,Vorname Verein Ak AKm AKw Endzeit Laufzeit1 Radzeit Lauf+Rad Laufzeit2 RŁckst.
1 1   289 Kebelmann, Conrad SUUNTO Team Die Kessen Sachsen TM30 1   0:48:00 0:18:22( 1 ) 0:23:39( 1 ) 0:42:01( 1 ) 0:05:59( 1 ) 0:00:00
2 2   313 Richter, Daniel Luckauer L√§uferbund TM35 1   0:51:41 0:19:12( 4 ) 0:25:48( 4 ) 0:45:00( 2 ) 0:06:41( 6 ) 0:03:41
3 3   321 Barduhn, Alexander Kleinmachnower Laufclub TM40 1   0:52:49 0:19:04( 3 ) 0:26:57( 15 ) 0:46:01( 4 ) 0:06:48( 9 ) 0:04:49
4 4   262 Seiler, Robert BSV AdW Berlin TM20 1   0:53:22 0:21:06( 20 ) 0:24:32( 2 ) 0:45:38( 3 ) 0:07:44( 35 ) 0:05:22
5 5   322 Baumg√§rtner, Dieter Bernauer Lauffreunde Triathlonteam TM40 2   0:53:30 0:19:46( 7 ) 0:27:00( 16 ) 0:46:46( 5 ) 0:06:44( 7 ) 0:05:30
6 6   309 Petsch, Gregor LT Bruno TM35 2   0:53:48 0:20:53( 19 ) 0:26:15( 6 ) 0:47:08( 9 ) 0:06:40( 5 ) 0:05:48
7 7   267 Lemberg, Martin PAIN IS TEMPORARY TM25 1   0:53:51 0:20:21( 12 ) 0:26:28( 10 ) 0:46:49( 6 ) 0:07:02( 12 ) 0:05:51
8 8   327 Schreiber, J√∂rg   TM40 3   0:53:57 0:19:56( 8 ) 0:27:15( 20 ) 0:47:11( 10 ) 0:06:46( 8 ) 0:05:57
9 9   271 G√§bler, Vinzent Stader SV TM25 2   0:54:00 0:20:16( 11 ) 0:26:49( 13 ) 0:47:05( 8 ) 0:06:55( 11 ) 0:06:00
10 10   290 Korsing, Ronny TLV Rangsdorf TM30 2   0:54:09 0:21:20( 24 ) 0:25:56( 5 ) 0:47:16( 11 ) 0:06:53( 10 ) 0:06:09
11 11   269 Ludwig, Jan Rinsis Werder TM25 3   0:54:48 0:19:40( 5 ) 0:28:34( 32 ) 0:48:14( 15 ) 0:06:34( 3 ) 0:06:48
12 12   253 Seiler, Karl BSV AdW TM20 2   0:55:02 0:22:27( 35 ) 0:24:35( 3 ) 0:47:02( 7 ) 0:08:00( 40 ) 0:07:02
13 13   318 Dziedzek, Ingo TSC Berlin TM35 3   0:55:07 0:20:50( 18 ) 0:27:04( 17 ) 0:47:54( 14 ) 0:07:13( 18 ) 0:07:07
14 14   255 Kupka, Daniel   TM20 3   0:55:11 0:20:25( 14 ) 0:27:13( 19 ) 0:47:38( 12 ) 0:07:33( 29 ) 0:07:11
15 15   260 Dr√ľcker, Florian SC Hagen-Wildewiese TM20 4   0:55:25 0:20:24( 13 ) 0:00:00 0:00:00 0:00:00 0:07:25
16 16   341 Ebner, J√ľrgen Kleinmachnower Laufclub TM40 4   0:55:49 0:20:29( 16 ) 0:28:53( 34 ) 0:49:22( 23 ) 0:06:27( 2 ) 0:07:49
17 17   324 Kirchner, Andreas   TM40 5   0:55:51 0:21:34( 29 ) 0:27:05( 18 ) 0:48:39( 17 ) 0:07:12( 17 ) 0:07:51
18 18   276 Braband, Danilo Berlin Racing Team TM25 4   0:55:55 0:21:26( 26 ) 0:27:15( 20 ) 0:48:41( 18 ) 0:07:14( 19 ) 0:07:55
19 19   366 Felstead, Mark Charles independent TM45 1   0:56:06 0:22:14( 31 ) 0:26:19( 7 ) 0:48:33( 16 ) 0:07:33( 30 ) 0:08:06
20 20   372 Sander, Torsten SG Stern Ludwigsfelde TM50 1   0:56:09 0:21:10( 22 ) 0:27:54( 24 ) 0:49:04( 22 ) 0:07:05( 14 ) 0:08:09
21 21   278 Theuerl, Jan ES_Triathlon TM30 3   0:56:15 0:20:31( 17 ) 0:28:23( 28 ) 0:48:54( 20 ) 0:07:21( 22 ) 0:08:15
22 22   259 Besslich, David   TM20 5   0:56:17 0:21:29( 28 ) 0:26:19( 7 ) 0:47:48( 13 ) 0:08:29( 46 ) 0:08:17
23 23   261 Albrecht, Daniel TRC Essen 87 TM20 6   0:56:18 0:22:20( 33 ) 0:26:40( 11 ) 0:49:00( 21 ) 0:07:18( 21 ) 0:08:18
24 24   339 Schumann, Winfried TuS Neuk√∂lln Berlin TM40 6   0:56:22 0:19:43( 6 ) 0:30:04( 42 ) 0:49:47( 27 ) 0:06:35( 4 ) 0:08:22
25 25   362 Schlutter, Karsten Gransee TM45 2   0:56:29 0:21:08( 21 ) 0:27:42( 22 ) 0:48:50( 19 ) 0:07:39( 31 ) 0:08:29
26 26   298 Schaffrath, Daniel Berliner TSC TM30 4   0:56:54 0:20:27( 15 ) 0:29:16( 38 ) 0:49:43( 26 ) 0:07:11( 16 ) 0:08:54
27 27   273 Koch, Thomas   TM25 5   0:56:56 0:23:00( 46 ) 0:26:25( 9 ) 0:49:25( 24 ) 0:07:31( 27 ) 0:08:56
28 28   330 Sprejz, Hendrik Ringfrei Ludwigsfelde TM40 7   0:57:17 0:00:00 0:00:00 0:49:34( 25 ) 0:07:43( 34 ) 0:09:17
29 29   624 Friedrich, Christian Weltraumjogger TM25 6   0:57:33 0:22:46( 41 ) 0:00:00 0:00:00 0:00:00 0:09:33
30 30   312 Remscheid, Markus TiB TM35 4   0:57:34 0:00:00 0:00:00 0:50:27( 29 ) 0:07:07( 15 ) 0:09:34
31 31   379 Schenke, J√∂rg Zeppelin-Team TM50 2   0:57:39 0:22:31( 37 ) 0:00:00 0:00:00 0:00:00 0:09:39
32 32   374 Holland, Jonathan Triathlon Friedrichshain TM50 3   0:58:01 0:22:25( 34 ) 0:27:48( 23 ) 0:50:13( 28 ) 0:07:48( 36 ) 0:10:01
33 33   266 Kater, Johannes   TM25 7   0:58:15 0:22:12( 30 ) 0:28:23( 28 ) 0:50:35( 31 ) 0:07:40( 32 ) 0:10:15
34 34   294 Hein, Benjamin   TM30 5   0:58:33 0:21:27( 27 ) 0:29:38( 40 ) 0:51:05( 32 ) 0:07:28( 24 ) 0:10:33
35 35   317 Schmachtenberg, Dirk Berliner TSC Triathlon TM35 5   0:58:51 0:23:43( 58 ) 0:26:45( 12 ) 0:50:28( 30 ) 0:08:23( 45 ) 0:10:51
36 36   364 Wolf, Frank TuS Neuk√∂lln Berlin TM45 3   0:58:58 0:22:29( 36 ) 0:28:59( 35 ) 0:51:28( 33 ) 0:07:30( 25 ) 0:10:58
37 37   285 Dechow, Matthias Medizin Friedrichshain TM30 6   0:59:11 0:23:10( 48 ) 0:28:20( 27 ) 0:51:30( 35 ) 0:07:41( 33 ) 0:11:11
38 38   283 Aust, Benny MSV Tripoint Frankfurt (Oder) TM30 7   0:59:16 0:20:11( 10 ) 0:00:00 0:00:00 0:00:00 0:11:16
39 39   329 Lukas, Dirk SV electronic Hohen Neuendorf TM40 8   0:59:20 0:00:00 0:00:00 0:00:00 0:00:00 0:11:20
40 40   292 D√∂hring, Karsten NBC-KW TM30 8   0:59:23 0:24:58( 73 ) 0:26:55( 14 ) 0:51:53( 38 ) 0:07:30( 25 ) 0:11:23
41 41   387 Heger, J√∂rg Hertha BSC Berlin Tischtennis TM25 8   0:59:26 0:23:15( 50 ) 0:29:09( 36 ) 0:52:24( 45 ) 0:07:02( 12 ) 0:11:26
42 42   349 Hahn, Carsten Team Tibet TM45 4   0:59:28 0:22:16( 32 ) 0:00:00 0:00:00 0:00:00 0:11:28
43 43   344 L age-Wahl, Andreas   TM45 5   0:59:30 0:00:00 0:00:00 0:51:36( 36 ) 0:07:54( 38 ) 0:11:30
44 44   256 Heyer, Martin Potsdam TM20 7   0:59:33 0:00:00 0:00:00 0:52:06( 40 ) 0:07:27( 23 ) 0:11:33
45 45   304 Liebener, Steffen Medizin Friedrichshain TM35 6   0:59:38 0:23:11( 49 ) 0:29:10( 37 ) 0:52:21( 44 ) 0:07:17( 20 ) 0:11:38
46 46   299 Raack, Jan-Hendrik   TM30 9   0:59:42 0:21:11( 23 ) 0:31:00( 43 ) 0:52:11( 42 ) 0:07:31( 28 ) 0:11:42
47 47   335 Sciarratta, Vincenzo sizilianischer stierverein TM40 9   0:59:51 0:22:58( 45 ) 0:28:31( 30 ) 0:51:29( 34 ) 0:08:22( 44 ) 0:11:51
48 48   359 Bagehorn, Ralph VfL Lichtenrade TM45 6   0:59:53 0:23:45( 59 ) 0:00:00 0:00:00 0:00:00 0:11:53
49 49   613 Runkewitz, Klaus SSV-Lichtenrade TM55 1   0:59:57 0:00:00 0:00:00 0:52:02( 39 ) 0:07:55( 39 ) 0:11:57
50 50   326 Kr√∂hnert, Steffen   TM40 10   1:00:00 0:22:50( 43 ) 0:29:18( 39 ) 0:52:08( 41 ) 0:07:52( 37 ) 0:12:00
51 51   353 K√ľhlkamp, Theo   TM45 7   1:00:02 0:23:32( 52 ) 0:00:00 0:00:00 0:00:00 0:12:02
52 52   375 J√ľngling, Peter   TM50 4   1:00:26 0:22:33( 38 ) 0:00:00 0:00:00 0:00:00 0:12:26
53 53   338 Mielisch, Kai LT Bruno TM40 11   1:00:29 0:23:49( 62 ) 0:28:31( 30 ) 0:52:20( 43 ) 0:08:09( 41 ) 0:12:29
54 54   295 P√ľttmann-Holgado, Roland   TM30 10   1:00:46 0:22:35( 39 ) 0:00:00 0:00:00 0:00:00 0:12:46
55 55   303 Becker, Ralf Triathlon Verein Berlin 09 TM35 7   1:00:49 0:22:42( 40 ) 0:00:00 0:00:00 0:00:00 0:12:49
56 56   314 Bossig, Christian   TM35 8   1:00:58 0:24:23( 69 ) 0:28:04( 25 ) 0:52:27( 46 ) 0:08:31( 47 ) 0:12:58
57 57   400 Achilles, Achim Sch√∂neberger Rahmenrohrkrepierer TM45 8   1:01:00 0:23:41( 57 ) 0:28:06( 26 ) 0:51:47( 37 ) 0:09:13( 48 ) 0:13:00
58 58   354 Gaede, Marcus   TM45 9   1:01:01 0:23:38( 55 ) 0:00:00 0:00:00 0:00:00 0:13:01
59 59   388 Quetz, Mathias TIB Cycling Team TM25 9   1:01:03 0:24:01( 64 ) 0:00:00 0:00:00 0:00:00 0:13:03
60 60   265 Loebe, Ralf 1. FC Union Berlin TM25 10   1:01:07 0:00:00 0:00:00 0:00:00 0:00:00 0:13:07
61 61   306 K√∂lbl, Marco Triabolos Hamburg e.V. TM35 9   1:01:15 0:24:18( 66 ) 0:28:40( 33 ) 0:52:58( 48 ) 0:08:17( 43 ) 0:13:15
62 62   323 Russow, Ren√©   TM40 12   1:01:23 0:23:28( 51 ) 0:29:41( 41 ) 0:53:09( 49 ) 0:08:14( 42 ) 0:13:23
63 63   385 Hechel, Horst   TM55 2   1:01:29 0:24:21( 68 ) 0:00:00 0:00:00 0:00:00 0:13:29
64 64   287 Hardenberg, Michael NBC-KW TM30 11   1:02:21 0:24:16( 65 ) 0:00:00 0:00:00 0:00:00 0:14:21
65 65   296 Mausolf, Brendon   TM30 12   1:02:23 0:23:48( 61 ) 0:00:00 0:00:00 0:00:00 0:14:23
66 66   337 Leberecht, Christian Polizei Berlin TM40 13   1:02:47 0:23:03( 47 ) 0:00:00 0:00:00 0:00:00 0:14:47
67 67   293 Jonas, Alexander   TM30 13   1:02:56 0:25:01( 74 ) 0:00:00 0:00:00 0:00:00 0:14:56
68 68   310 H√ľbert, Heiko   TM35 10   1:03:06 0:23:46( 60 ) 0:00:00 0:00:00 0:00:00 0:15:06
69 69   291 Sturzenbecher, Markus   TM30 14   1:03:15 0:24:20( 67 ) 0:00:00 0:00:00 0:00:00 0:15:15
70 70   356 Forsbach, J√ľrgen   TM45 10   1:03:35 0:23:36( 54 ) 0:00:00 0:00:00 0:00:00 0:15:35
71 71   348 Buch, Matthias   TM45 11   1:03:39 0:22:57( 44 ) 0:00:00 0:00:00 0:00:00 0:15:39
72 72   363 Hanisch, Gert   TM45 12   1:03:45 0:25:47( 79 ) 0:00:00 0:00:00 0:00:00 0:15:45
73 73   300 Schulz, Philipp DAV Berlin TM35 11   1:03:52 0:24:49( 71 ) 0:00:00 0:00:00 0:00:00 0:15:52
74 74   376 Putz, andreas pl√∂serunners TM50 5   1:04:01 0:24:30( 70 ) 0:00:00 0:00:00 0:00:00 0:16:01
75 75   360 Ru√ü, Ralf   TM45 13   1:04:31 0:24:51( 72 ) 0:00:00 0:00:00 0:00:00 0:16:31
76 76   357 Schwarzer, Thomas K√∂rperkultur & Sport Potsdam TM45 14   1:04:37 0:25:10( 77 ) 0:00:00 0:00:00 0:00:00 0:16:37
77 77   254 Suhrbier, Christoph SG Wasserratten Norderstedt TM20 8   1:04:44 0:23:40( 56 ) 0:00:00 0:00:00 0:00:00 0:16:44
78 78   370 Schill, Volkhard IDAA TM45 15   1:05:00 0:26:59( 84 ) 0:00:00 0:00:00 0:00:00 0:17:00
79 79   301 Schilperoort, Wouter   TM35 12   1:05:02 0:22:48( 42 ) 0:00:00 0:00:00 0:00:00 0:17:02
80 80   315 Gliese, Frank   TM35 13   1:05:26 0:26:44( 81 ) 0:00:00 0:00:00 0:00:00 0:17:26
81 81   332 Sindermann, Mirko   TM40 14   1:05:28 0:23:59( 63 ) 0:00:00 0:00:00 0:00:00 0:17:28
82 82   380 K√∂nig, Martin TIB 1848 TM50 6   1:05:31 0:25:25( 78 ) 0:00:00 0:00:00 0:00:00 0:17:31
83 83   346 Bachmann, Jens   TM45 16   1:05:55 0:25:03( 75 ) 0:00:00 0:00:00 0:00:00 0:17:55
84 84   272 Meisen, Daniel   TM25 11   1:06:31 0:26:03( 80 ) 0:00:00 0:00:00 0:00:00 0:18:31
85 85   334 Ruby, Daniel   TM40 15   1:07:06 0:21:24( 25 ) 0:00:00 0:00:00 0:00:00 0:19:06
86 86   331 Morten, Kai suntoucher Marwitz TM40 16   1:07:11 0:23:34( 53 ) 0:00:00 0:00:00 0:00:00 0:19:11
87 87   282 Krause, Benjamin   TM30 15   1:07:28 0:27:04( 86 ) 0:00:00 0:00:00 0:00:00 0:19:28
88 88   350 Lagemann, Godo Rapid Ramirez Sektion Berlin TM45 17   1:07:48 0:27:25( 87 ) 0:00:00 0:00:00 0:00:00 0:19:48
89 89   316 Bollm, Thomas   TM35 14   1:08:38 0:27:01( 85 ) 0:00:00 0:00:00 0:00:00 0:20:38
90 90   371 Rumpf, Uwe Lions on the run TM45 18   1:08:44 0:27:34( 89 ) 0:00:00 0:00:00 0:00:00 0:20:44
91 91   382 Rodewald, Detlef LT Britzer Garten TM55 3   1:08:47 0:28:36( 92 ) 0:00:00 0:00:00 0:00:00 0:20:47
92 92   263 Gieseler, Alexander   TM20 9   1:09:07 0:28:35( 91 ) 0:00:00 0:00:00 0:00:00 0:21:07
93 93   345 Groener, Andreas VFSW TM45 19   1:09:10 0:28:06( 90 ) 0:00:00 0:00:00 0:00:00 0:21:10
94 94   378 Wunderlich, Frank Summter Wald L√§ufer TM50 7   1:10:58 0:26:53( 83 ) 0:00:00 0:00:00 0:00:00 0:22:58
95 95   268 G√ľnther, Andreas   TM25 12   1:11:01 0:27:28( 88 ) 0:00:00 0:00:00 0:00:00 0:23:01
96 96   369 Siebeck, Lothar BSV Friesen TM45 20   1:12:25 0:26:51( 82 ) 0:00:00 0:00:00 0:00:00 0:24:25
97 97   355 P√∂tschick, Holger   TM45 21   1:12:58 0:25:08( 76 ) 0:00:00 0:00:00 0:00:00 0:24:58
98 98   367 Rehfeld, Ren√©   TM45 22   1:17:54 0:31:39( 94 ) 0:00:00 0:00:00 0:00:00 0:29:54
99 99   381 Gabbert, Uwe   TM55 4   1:18:48 0:00:00 0:00:00 0:00:00 0:00:00 0:30:48
100 100   343 K√∂rner, Olaf   TM40 17   1:21:55 0:32:01( 95 ) 0:00:00 0:00:00 0:00:00 0:33:55
101 101   619 Karl, Joachim Triathlon Verein Berlin 09 e.V. TM60 1   1:22:30 0:36:17( 98 ) 0:00:00 0:00:00 0:00:00 0:34:30
102 102   361 Wolff, Christian Weltraumjogger TM45 23   1:23:30 0:32:55( 96 ) 0:00:00 0:00:00 0:00:00 0:35:30
      288 Haese, Thomas   TM30     0:00:00 0:00:00 0:00:00 0:52:44( 47 ) 0:00:00 0:00:00
      308 Kiwus, Dirk   TM35     0:00:00 0:18:33( 2 ) 0:00:00 0:00:00 0:00:00 0:00:00
      333 Trecka, Uwe www.TriathlonOase.de TM40     0:00:00 0:20:06( 9 ) 0:00:00 0:00:00 0:00:00 0:00:00
      342 Tenner, Stefan   TM40     0:00:00 0:30:51( 93 ) 0:00:00 0:00:00 0:00:00 0:00:00
      383 Grubann, Thomas-Gregor   TM55     0:00:00 0:33:42( 97 ) 0:00:00 0:00:00 0:00:00 0:00:00
(c) 1990-2020 Blue Wonder Sport Promotion - Andreas Burow - Zeitnahme & Auswertung - www.Triathlon-Service.de